Time;durP1;ratioP1;P1;durP2;ratioP2;P2;SDS_P1;SDS_P2;PMS_P1;PMS_P2;Temp;Humidity;BMP_temperature;BMP_pressure;BME280_temperature;BME280_humidity;BME280_pressure;Samples;Min_cycle;Max_cycle;Signal;HPM_P1;HPM_P2
2023/01/01 00:02:07;;;;;;;;;;;;;;;15.60;54.43;100754.84;5077626;28;20289;-61
2023/01/01 00:04:33;;;;;;;;;;;;;;;15.63;54.31;100792.75;5069694;28;19935;-62
2023/01/01 00:06:58;;;;;;;;;;;;;;;15.68;54.08;100779.56;5076819;28;20011;-62
2023/01/01 00:12:07;;;;;;;;;;;;;;;15.62;54.24;100777.72;5075188;28;19923;-61
2023/01/01 00:14:33;;;;;;;;;;;;;;;15.66;54.56;100781.63;5074435;28;19915;-61
2023/01/01 00:16:58;;;;;;;;;;;;;;;15.64;54.64;100783.69;5083525;28;20000;-61
2023/01/01 00:19:23;;;;;;;;;;;;;;;15.59;54.72;100794.16;5073068;28;20018;-61
2023/01/01 00:21:48;;;;;;;;;;;;;;;15.56;54.65;100785.69;5073268;28;19924;-64
2023/01/01 00:24:13;;;;;;;;;;;;;;;15.34;54.97;100788.56;5082022;28;20058;-61
2023/01/01 00:26:39;;;;;;;;;;;;;;;15.30;55.35;100783.81;5072277;28;19924;-62
2023/01/01 00:29:04;;;;;;;;;;;;;;;15.34;55.12;100767.16;5080623;28;19916;-61
2023/01/01 00:31:29;;;;;;;;;;;;;;;15.32;55.32;100768.38;5073929;28;19927;-63
2023/01/01 00:33:55;;;;;;;;;;;;;;;15.27;55.30;100782.34;5083580;28;19921;-61
2023/01/01 00:36:21;;;;;;;;;;;;;;;15.28;55.37;100767.94;5086119;28;20680;-61
2023/01/01 00:38:46;;;;;;;;;;;;;;;15.30;55.13;100792.66;5096005;28;20392;-62
2023/01/01 00:41:12;;;;;;;;;;;;;;;15.35;54.84;100778.69;5080038;28;19927;-62
2023/01/01 00:43:38;;;;;;;;;;;;;;;15.38;54.52;100779.09;5081313;28;20011;-61
2023/01/01 00:46:03;;;;;;;;;;;;;;;15.40;54.69;100777.03;5081282;28;20409;-61
2023/01/01 00:48:29;;;;;;;;;;;;;;;15.37;54.78;100782.81;5085853;28;19924;-61
2023/01/01 00:50:54;;;;;;;;;;;;;;;15.42;54.34;100779.53;5084401;28;19924;-62
2023/01/01 00:53:20;;;;;;;;;;;;;;;15.46;54.39;100778.91;5082731;28;19942;-61
2023/01/01 00:55:46;;;;;;;;;;;;;;;15.44;54.67;100793.50;5088444;28;19987;-61
2023/01/01 00:58:11;;;;;;;;;;;;;;;15.27;55.51;100792.22;5080010;28;19918;-61
2023/01/01 01:00:36;;;;;;;;;;;;;;;14.94;56.12;100781.44;5081445;28;20323;-62
2023/01/01 01:03:02;;;;;;;;;;;;;;;14.78;57.08;100793.31;5088350;28;19962;-62
2023/01/01 01:05:27;;;;;;;;;;;;;;;14.86;57.08;100806.50;5079125;28;19920;-62
2023/01/01 01:07:53;;;;;;;;;;;;;;;14.95;56.94;100789.25;5100856;28;20351;-61
2023/01/01 01:10:20;;;;;;;;;;;;;;;15.06;56.43;100809.28;5080760;28;19917;-62
2023/01/01 01:12:46;;;;;;;;;;;;;;;15.11;56.27;100799.63;5085683;28;19991;-62
2023/01/01 01:15:11;;;;;;;;;;;;;;;15.13;56.32;100789.53;5079113;28;20007;-61
2023/01/01 01:17:36;;;;;;;;;;;;;;;15.21;56.10;100790.38;5081823;28;19920;-61
2023/01/01 01:20:02;;;;;;;;;;;;;;;15.23;55.79;100789.13;5082804;28;19920;-61
2023/01/01 01:22:27;;;;;;;;;;;;;;;15.15;55.76;100779.47;5071952;28;19925;-62
2023/01/01 01:24:52;;;;;;;;;;;;;;;15.05;55.99;100776.34;5078772;28;20435;-62
2023/01/01 01:27:17;;;;;;;;;;;;;;;15.10;55.67;100778.41;5077681;28;20379;-62
2023/01/01 01:29:43;;;;;;;;;;;;;;;15.12;55.91;100797.75;5071440;28;19963;-61
2023/01/01 01:32:09;;;;;;;;;;;;;;;15.11;55.98;100807.63;5074437;28;19920;-61
2023/01/01 01:34:34;;;;;;;;;;;;;;;15.12;55.85;100803.13;5081659;28;19916;-63
2023/01/01 01:37:00;;;;;;;;;;;;;;;15.18;55.79;100799.63;5088424;28;20014;-62
2023/01/01 01:39:25;;;;;;;;;;;;;;;15.23;55.38;100807.88;5072052;28;20303;-63
2023/01/01 01:41:50;;;;;;;;;;;;;;;15.18;55.61;100805.81;5078446;28;19959;-61
2023/01/01 01:44:34;;;;;;;;;;;;;;;15.17;55.62;100817.53;5085849;28;20315;-62
2023/01/01 01:47:00;;;;;;;;;;;;;;;15.20;55.15;100816.31;5081265;28;19916;-63
2023/01/01 01:49:27;;;;;;;;;;;;;;;15.15;55.21;100832.13;5069466;28;19958;-65
2023/01/01 01:51:53;;;;;;;;;;;;;;;15.08;55.54;100805.38;5078985;28;20305;-62
2023/01/01 01:54:21;;;;;;;;;;;;;;;15.11;55.42;100804.16;5078525;28;19920;-61
2023/01/01 01:56:58;;;;;;;;;;;;;;;15.11;55.39;100798.78;5084894;28;19916;-61
2023/01/01 01:59:25;;;;;;;;;;;;;;;15.12;55.23;100811.97;5080400;28;19927;-63
2023/01/01 02:01:51;;;;;;;;;;;;;;;15.10;55.09;100819.38;5075916;28;19981;-61
2023/01/01 02:04:17;;;;;;;;;;;;;;;15.06;55.20;100831.50;5079263;28;20380;-61
2023/01/01 02:06:43;;;;;;;;;;;;;;;15.09;54.94;100835.63;5082083;28;19920;-62
2023/01/01 02:09:08;;;;;;;;;;;;;;;15.08;55.10;100864.22;5075092;28;20422;-62
2023/01/01 02:11:33;;;;;;;;;;;;;;;15.07;55.18;100851.03;5079094;28;19923;-62
2023/01/01 02:14:00;;;;;;;;;;;;;;;15.09;54.96;100868.53;5080180;28;20388;-61
2023/01/01 02:16:35;;;;;;;;;;;;;;;15.10;54.85;100832.75;5082597;28;19921;-61
2023/01/01 02:19:09;;;;;;;;;;;;;;;15.09;54.68;100854.34;5073195;28;19916;-61
2023/01/01 02:22:00;;;;;;;;;;;;;;;15.06;54.49;100842.19;5082463;28;19961;-63
2023/01/01 02:24:38;;;;;;;;;;;;;;;15.04;54.57;100838.06;5080006;28;20038;-61
2023/01/01 02:27:10;;;;;;;;;;;;;;;15.03;54.47;100844.41;5089665;28;19962;-61
2023/01/01 02:29:48;;;;;;;;;;;;;;;15.05;54.20;100832.53;5081118;28;19962;-61
2023/01/01 02:32:16;;;;;;;;;;;;;;;15.04;54.14;100832.72;5077346;28;19916;-62
2023/01/01 02:34:58;;;;;;;;;;;;;;;14.98;54.31;100826.31;5084750;28;19916;-62
2023/01/01 02:37:26;;;;;;;;;;;;;;;14.94;54.42;100840.28;5079177;28;20395;-61
2023/01/01 02:39:53;;;;;;;;;;;;;;;14.91;54.07;100846.84;5076151;28;19916;-62
2023/01/01 02:42:19;;;;;;;;;;;;;;;14.92;54.22;100847.66;5086981;28;20015;-63
2023/01/01 02:44:47;;;;;;;;;;;;;;;14.87;54.81;100841.06;5082368;28;19912;-63
2023/01/01 02:47:16;;;;;;;;;;;;;;;14.79;54.48;100849.25;5088880;28;20239;-60
2023/01/01 02:49:49;;;;;;;;;;;;;;;14.83;54.37;100855.88;5081270;28;19984;-62
2023/01/01 02:52:24;;;;;;;;;;;;;;;14.85;54.40;100855.66;5077944;28;19916;-61
2023/01/01 02:54:55;;;;;;;;;;;;;;;14.81;54.37;100857.91;5091121;28;19923;-62
2023/01/01 02:57:28;;;;;;;;;;;;;;;14.78;54.49;100862.84;5084180;28;20382;-61
2023/01/01 03:02:54;;;;;;;;;;;;;;;14.75;54.79;100860.56;5082675;28;19927;-62
2023/01/01 03:05:22;;;;;;;;;;;;;;;14.74;54.90;100867.72;5070881;28;20102;-61
2023/01/01 03:07:56;;;;;;;;;;;;;;;14.73;54.71;100858.06;5082229;28;19917;-64
2023/01/01 03:10:27;;;;;;;;;;;;;;;14.69;54.81;100864.00;5085836;28;19963;-62
2023/01/01 03:12:55;;;;;;;;;;;;;;;14.65;55.12;100854.72;5076406;28;20479;-61
2023/01/01 03:15:26;;;;;;;;;;;;;;;14.63;55.09;100864.78;5073847;28;19925;-61
2023/01/01 03:18:04;;;;;;;;;;;;;;;14.64;55.00;100869.09;5076137;28;20404;-62
2023/01/01 03:20:31;;;;;;;;;;;;;;;14.66;55.58;100880.44;5072227;28;19920;-62
2023/01/01 03:22:59;;;;;;;;;;;;;;;14.63;55.57;100872.81;5078508;28;19917;-61
2023/01/01 03:25:27;;;;;;;;;;;;;;;14.67;55.20;100864.19;5085826;28;20338;-60
2023/01/01 03:27:56;;;;;;;;;;;;;;;14.66;55.16;100883.09;5073512;28;20429;-62
2023/01/01 03:30:22;;;;;;;;;;;;;;;14.63;55.64;100886.16;5085497;28;19956;-62
2023/01/01 03:32:59;;;;;;;;;;;;;;;14.57;55.91;100877.91;5080449;28;19938;-61
2023/01/01 03:35:29;;;;;;;;;;;;;;;14.57;56.06;100875.25;5089083;28;20010;-62
2023/01/01 03:37:56;;;;;;;;;;;;;;;14.61;55.95;100882.88;5086071;28;19912;-62
2023/01/01 03:40:22;;;;;;;;;;;;;;;14.65;55.95;100895.63;5079431;28;19923;-61
2023/01/01 03:42:51;;;;;;;;;;;;;;;14.58;56.45;100900.13;5083320;28;19924;-62
2023/01/01 03:45:18;;;;;;;;;;;;;;;14.57;56.45;100910.00;5090833;28;19912;-62
2023/01/01 03:47:43;;;;;;;;;;;;;;;14.58;56.37;100900.13;5080650;28;19973;-61
2023/01/01 03:50:08;;;;;;;;;;;;;;;14.54;56.76;100904.22;5082417;28;20386;-62
2023/01/01 03:52:52;;;;;;;;;;;;;;;14.54;57.25;100921.06;5080791;28;19962;-62
2023/01/01 03:55:27;;;;;;;;;;;;;;;14.50;57.31;100916.31;5088433;28;20364;-62
2023/01/01 03:58:00;;;;;;;;;;;;;;;14.50;57.75;100916.31;5080481;28;20396;-62
2023/01/01 04:00:30;;;;;;;;;;;;;;;14.47;57.63;100914.84;5090017;28;19939;-62
2023/01/01 04:02:58;;;;;;;;;;;;;;;14.48;57.60;100913.84;5081927;28;19921;-62
2023/01/01 04:05:23;;;;;;;;;;;;;;;14.50;57.77;100911.78;5077534;28;20003;-62
2023/01/01 04:07:50;;;;;;;;;;;;;;;14.52;57.72;100917.78;5081285;28;20451;-62
2023/01/01 04:10:16;;;;;;;;;;;;;;;14.50;57.52;100906.44;5083784;28;19950;-62
2023/01/01 04:13:01;;;;;;;;;;;;;;;14.51;57.93;100916.13;5079040;28;19952;-62
2023/01/01 04:15:27;;;;;;;;;;;;;;;14.45;58.19;100930.22;5082381;28;19920;-61
2023/01/01 04:17:52;;;;;;;;;;;;;;;14.48;58.19;100918.34;5092121;28;20333;-62
2023/01/01 04:20:18;;;;;;;;;;;;;;;14.50;58.23;100913.66;5085548;28;19927;-61
2023/01/01 04:22:43;;;;;;;;;;;;;;;14.48;58.56;100940.56;5094328;28;19912;-63
2023/01/01 04:25:10;;;;;;;;;;;;;;;14.45;58.72;100935.56;5083241;28;19942;-64
2023/01/01 04:27:35;;;;;;;;;;;;;;;14.41;58.84;100926.25;5082053;28;19920;-61
2023/01/01 04:30:00;;;;;;;;;;;;;;;14.37;58.87;100925.00;5083517;28;19922;-61
2023/01/01 04:32:26;;;;;;;;;;;;;;;14.34;59.32;100924.56;5081852;28;19916;-62
2023/01/01 04:34:51;;;;;;;;;;;;;;;14.35;59.01;100923.53;5077735;28;19916;-62
2023/01/01 04:37:16;;;;;;;;;;;;;;;14.35;59.10;100927.03;5076384;28;19923;-64
2023/01/01 04:39:41;;;;;;;;;;;;;;;14.35;59.66;100932.38;5082768;28;20311;-62
2023/01/01 04:42:07;;;;;;;;;;;;;;;14.34;59.50;100941.44;5082820;28;19916;-62
2023/01/01 04:44:32;;;;;;;;;;;;;;;14.35;59.61;100945.75;5081164;28;20058;-62
2023/01/01 04:46:57;;;;;;;;;;;;;;;14.34;59.40;100953.94;5085269;28;20376;-60
2023/01/01 04:49:22;;;;;;;;;;;;;;;14.36;59.60;100946.56;5071849;28;20382;-61
2023/01/01 04:51:48;;;;;;;;;;;;;;;14.32;59.97;100946.13;5085873;28;19912;-62
2023/01/01 04:54:13;;;;;;;;;;;;;;;14.26;60.32;100963.75;5079880;28;19916;-62
2023/01/01 04:56:38;;;;;;;;;;;;;;;14.27;60.03;100962.75;5074741;28;19960;-62
2023/01/01 04:59:03;;;;;;;;;;;;;;;14.25;60.68;100966.63;5079384;28;19912;-63
2023/01/01 05:01:29;;;;;;;;;;;;;;;14.25;60.74;100963.97;5076281;28;20046;-62
2023/01/01 05:03:55;;;;;;;;;;;;;;;14.23;61.06;100972.16;5071367;28;19970;-63
2023/01/01 05:06:20;;;;;;;;;;;;;;;14.22;61.04;100985.72;5070950;28;19924;-61
2023/01/01 05:08:47;;;;;;;;;;;;;;;14.22;61.48;101002.56;5079094;28;19919;-61
2023/01/01 05:11:22;;;;;;;;;;;;;;;14.13;61.98;101003.69;5079922;28;19923;-60
2023/01/01 05:13:48;;;;;;;;;;;;;;;14.13;61.97;100993.00;5075565;28;20497;-61
2023/01/01 05:16:15;;;;;;;;;;;;;;;14.12;62.04;100987.84;5081101;28;19912;-62
2023/01/01 05:18:40;;;;;;;;;;;;;;;14.20;61.93;101003.78;5077531;28;19942;-61
2023/01/01 05:21:07;;;;;;;;;;;;;;;14.16;62.39;100997.97;5094376;28;20371;-62
2023/01/01 05:23:32;;;;;;;;;;;;;;;14.12;62.58;101039.41;5076138;28;19928;-61
2023/01/01 05:25:58;;;;;;;;;;;;;;;14.06;62.98;101039.34;5075223;28;19916;-61
2023/01/01 05:28:23;;;;;;;;;;;;;;;13.99;63.41;101025.94;5077559;28;19917;-62
2023/01/01 05:30:49;;;;;;;;;;;;;;;13.91;63.46;101026.06;5084198;28;20020;-61
2023/01/01 05:33:14;;;;;;;;;;;;;;;13.90;63.68;101016.38;5081755;28;19936;-62
2023/01/01 05:35:39;;;;;;;;;;;;;;;13.89;63.95;101022.75;5082156;28;19920;-61
2023/01/01 05:38:05;;;;;;;;;;;;;;;13.93;63.92;101034.69;5078083;28;20803;-61
2023/01/01 05:40:30;;;;;;;;;;;;;;;13.89;64.11;101050.28;5079379;28;19916;-61
2023/01/01 05:42:55;;;;;;;;;;;;;;;13.85;64.22;101043.63;5081557;28;19967;-62
2023/01/01 05:45:20;;;;;;;;;;;;;;;13.85;64.60;101037.47;5090362;28;19916;-61
2023/01/01 05:47:45;;;;;;;;;;;;;;;13.80;64.93;101051.38;5082437;28;19927;-63
2023/01/01 05:50:10;;;;;;;;;;;;;;;13.72;65.44;101054.16;5083437;28;20300;-61
2023/01/01 05:52:36;;;;;;;;;;;;;;;13.67;66.25;101058.41;5082454;28;19923;-63
2023/01/01 05:55:01;;;;;;;;;;;;;;;13.61;66.58;101065.31;5081328;28;20384;-61
2023/01/01 05:57:29;;;;;;;;;;;;;;;13.54;67.06;101072.38;5087164;28;19982;-61
2023/01/01 05:59:54;;;;;;;;;;;;;;;13.47;67.44;101069.63;5082326;28;20396;-61
2023/01/01 06:02:19;;;;;;;;;;;;;;;13.42;68.09;101082.69;5076351;28;19927;-58
2023/01/01 06:04:44;;;;;;;;;;;;;;;13.38;68.38;101097.41;5077222;28;19943;-63
2023/01/01 06:07:10;;;;;;;;;;;;;;;13.32;68.82;101088.28;5083084;28;19928;-62
2023/01/01 06:09:35;;;;;;;;;;;;;;;13.30;69.22;101108.16;5083070;28;20523;-61
2023/01/01 06:12:00;;;;;;;;;;;;;;;13.28;68.67;101108.31;5085952;28;19916;-63
2023/01/01 06:14:25;;;;;;;;;;;;;;;13.29;68.60;101123.31;5082765;28;19916;-59
2023/01/01 06:16:50;;;;;;;;;;;;;;;13.30;67.80;101148.16;5084190;28;19916;-61
2023/01/01 06:19:16;;;;;;;;;;;;;;;13.11;67.89;101140.63;5085341;28;19920;-61
2023/01/01 06:21:41;;;;;;;;;;;;;;;12.73;68.39;101145.09;5087315;28;19920;-61
2023/01/01 06:24:07;;;;;;;;;;;;;;;12.15;70.52;101151.75;5087968;28;19916;-62
2023/01/01 06:26:32;;;;;;;;;;;;;;;11.44;73.45;101161.38;5081460;28;19926;-61
2023/01/01 06:28:58;;;;;;;;;;;;;;;11.06;76.28;101197.44;5079309;28;19916;-61
2023/01/01 06:31:23;;;;;;;;;;;;;;;10.54;80.56;101158.66;5078372;28;19922;-61
2023/01/01 06:33:52;;;;;;;;;;;;;;;10.24;83.36;101160.06;5084721;28;19920;-64
2023/01/01 06:36:19;;;;;;;;;;;;;;;10.11;85.59;101151.69;5083496;28;20014;-61
2023/01/01 06:38:45;;;;;;;;;;;;;;;10.08;87.70;101170.56;5082636;28;19916;-61
2023/01/01 06:41:15;;;;;;;;;;;;;;;10.05;88.58;101178.84;5081064;28;19924;-61
2023/01/01 06:43:40;;;;;;;;;;;;;;;10.08;89.27;101178.53;5093839;28;19916;-60
2023/01/01 06:46:17;;;;;;;;;;;;;;;10.29;89.47;101177.34;5089876;28;20402;-61
2023/01/01 06:48:42;;;;;;;;;;;;;;;10.49;89.07;101192.00;5088319;28;19916;-61
2023/01/01 06:51:09;;;;;;;;;;;;;;;10.68;87.64;101178.44;5084233;28;19920;-61
2023/01/01 06:53:34;;;;;;;;;;;;;;;10.84;85.89;101197.06;5084753;28;19938;-62
2023/01/01 06:55:59;;;;;;;;;;;;;;;11.08;84.26;101190.97;5083690;28;20385;-61
2023/01/01 06:58:25;;;;;;;;;;;;;;;11.27;82.79;101208.41;5089831;28;19911;-61
2023/01/01 07:00:50;;;;;;;;;;;;;;;11.34;81.69;101214.75;5101277;28;20011;-61
2023/01/01 07:03:15;;;;;;;;;;;;;;;11.42;80.04;101195.28;5082149;28;19917;-62
2023/01/01 07:05:40;;;;;;;;;;;;;;;11.46;79.56;101200.09;5079687;28;19955;-61
2023/01/01 07:08:05;;;;;;;;;;;;;;;11.49;79.27;101221.03;5090304;28;20395;-62
2023/01/01 07:10:30;;;;;;;;;;;;;;;11.54;78.70;101201.06;5086579;28;19912;-61
2023/01/01 07:12:56;;;;;;;;;;;;;;;11.45;79.36;101224.19;5083373;28;20057;-62
2023/01/01 07:15:21;;;;;;;;;;;;;;;11.42;79.79;101229.84;5084376;28;19916;-61
2023/01/01 07:17:46;;;;;;;;;;;;;;;11.46;80.13;101232.00;5088801;28;20053;-62
2023/01/01 07:20:11;;;;;;;;;;;;;;;11.51;80.01;101212.06;5099370;28;20602;-60
2023/01/01 07:22:38;;;;;;;;;;;;;;;11.43;80.36;101216.38;5079675;28;20009;-61
2023/01/01 07:25:04;;;;;;;;;;;;;;;11.42;80.61;101228.03;5079914;28;19998;-61
2023/01/01 07:27:29;;;;;;;;;;;;;;;11.41;80.63;101234.34;5076217;28;20749;-61
2023/01/01 07:29:54;;;;;;;;;;;;;;;11.37;80.43;101226.88;5081914;28;19935;-61
2023/01/01 07:32:19;;;;;;;;;;;;;;;11.25;80.36;101244.94;5083915;28;19919;-61
2023/01/01 07:34:45;;;;;;;;;;;;;;;11.10;80.57;101238.63;5082786;28;19920;-61
2023/01/01 07:37:10;;;;;;;;;;;;;;;11.04;81.23;101237.47;5084571;28;20383;-62
2023/01/01 07:39:35;;;;;;;;;;;;;;;11.11;81.07;101259.75;5079269;28;19981;-61
2023/01/01 07:42:00;;;;;;;;;;;;;;;11.03;80.83;101238.47;5083257;28;19952;-61
2023/01/01 07:44:25;;;;;;;;;;;;;;;10.94;81.57;101263.34;5082858;28;19916;-62
2023/01/01 07:46:59;;;;;;;;;;;;;;;11.04;81.52;101261.41;5085357;28;19920;-62
2023/01/01 07:49:25;;;;;;;;;;;;;;;11.12;81.79;101274.69;5082513;28;19916;-62
2023/01/01 07:51:50;;;;;;;;;;;;;;;11.18;81.39;101291.81;5086097;28;20009;-61
2023/01/01 07:54:15;;;;;;;;;;;;;;;11.14;81.65;101298.44;5081746;28;19916;-63
2023/01/01 07:56:40;;;;;;;;;;;;;;;11.17;81.38;101306.94;5082038;28;19920;-61
2023/01/01 07:59:05;;;;;;;;;;;;;;;11.14;81.48;101319.72;5077930;28;19916;-62
2023/01/01 08:01:33;;;;;;;;;;;;;;;11.12;82.04;101329.69;5077569;28;19916;-62
2023/01/01 08:03:58;;;;;;;;;;;;;;;11.04;82.25;101329.66;5073048;28;19921;-61
2023/01/01 08:06:24;;;;;;;;;;;;;;;10.97;82.77;101340.09;5080992;28;19926;-61
2023/01/01 08:08:49;;;;;;;;;;;;;;;10.81;83.64;101337.38;5080865;28;20379;-61
2023/01/01 08:11:14;;;;;;;;;;;;;;;10.69;84.69;101336.81;5084964;28;19916;-61
2023/01/01 08:13:39;;;;;;;;;;;;;;;10.58;86.39;101341.59;5076485;28;20011;-62
2023/01/01 08:16:05;;;;;;;;;;;;;;;10.41;87.74;101357.44;5084977;28;20430;-61
2023/01/01 08:18:30;;;;;;;;;;;;;;;10.31;88.98;101348.72;5078859;28;20375;-62
2023/01/01 08:20:56;;;;;;;;;;;;;;;10.27;89.77;101341.25;5079612;28;19985;-61
2023/01/01 08:23:21;;;;;;;;;;;;;;;10.27;90.72;101341.25;5079550;28;19927;-64
2023/01/01 08:25:46;;;;;;;;;;;;;;;10.27;91.53;101339.41;5079167;28;19912;-62
2023/01/01 08:28:11;;;;;;;;;;;;;;;10.24;92.08;101350.34;5083698;28;19923;-62
2023/01/01 08:30:36;;;;;;;;;;;;;;;10.24;92.18;101348.53;5072405;28;19923;-60
2023/01/01 08:33:02;;;;;;;;;;;;;;;10.27;92.13;101343.91;5083117;28;19920;-63
2023/01/01 08:35:27;;;;;;;;;;;;;;;10.22;92.44;101349.69;5087415;28;19927;-62
2023/01/01 08:37:52;;;;;;;;;;;;;;;10.26;91.95;101359.00;5076882;28;19976;-63
2023/01/01 08:40:17;;;;;;;;;;;;;;;10.32;92.04;101376.09;5076704;28;19998;-61
2023/01/01 08:42:43;;;;;;;;;;;;;;;10.31;92.15;101382.41;5080691;28;20303;-61
2023/01/01 08:45:08;;;;;;;;;;;;;;;10.24;92.63;101416.72;5074745;28;20014;-64
2023/01/01 08:47:34;;;;;;;;;;;;;;;10.08;93.58;101385.53;5079424;28;19928;-62
2023/01/01 08:49:59;;;;;;;;;;;;;;;9.89;95.18;101402.47;5076846;28;19931;-62
2023/01/01 08:52:24;;;;;;;;;;;;;;;9.81;96.48;101407.66;5081875;28;20011;-63
2023/01/01 08:54:49;;;;;;;;;;;;;;;9.70;98.19;101383.22;5080857;28;20302;-61
2023/01/01 08:57:14;;;;;;;;;;;;;;;9.67;99.42;101388.81;5074639;28;19916;-63
2023/01/01 08:59:40;;;;;;;;;;;;;;;9.65;100.00;101378.34;5083011;28;20410;-63
2023/01/01 09:02:05;;;;;;;;;;;;;;;9.63;100.00;101370.56;5076895;28;19932;-62
2023/01/01 09:04:31;;;;;;;;;;;;;;;9.62;100.00;101366.25;5077639;28;20036;-61
2023/01/01 09:06:56;;;;;;;;;;;;;;;9.63;100.00;101365.25;5073379;28;19963;-61
2023/01/01 09:09:21;;;;;;;;;;;;;;;9.66;100.00;101373.88;5077827;28;19948;-62
2023/01/01 09:11:50;;;;;;;;;;;;;;;9.68;100.00;101378.06;5082409;28;20402;-62
2023/01/01 09:14:15;;;;;;;;;;;;;;;9.68;100.00;101383.34;5082739;28;19916;-61
2023/01/01 09:16:41;;;;;;;;;;;;;;;9.70;100.00;101388.50;5084151;28;19970;-61
2023/01/01 09:19:06;;;;;;;;;;;;;;;9.73;100.00;101393.50;5085733;28;19920;-60
2023/01/01 09:21:31;;;;;;;;;;;;;;;9.74;100.00;101400.47;5089907;28;19916;-62
2023/01/01 09:23:56;;;;;;;;;;;;;;;9.75;100.00;101394.19;5085362;28;20444;-61
2023/01/01 09:26:21;;;;;;;;;;;;;;;9.77;100.00;101400.19;5083041;28;19916;-62
2023/01/01 09:28:47;;;;;;;;;;;;;;;9.79;100.00;101398.19;5078918;28;19968;-61
2023/01/01 09:31:12;;;;;;;;;;;;;;;9.80;100.00;101389.25;5082510;28;19920;-62
2023/01/01 09:33:37;;;;;;;;;;;;;;;9.81;100.00;101390.91;5083480;28;19978;-62
2023/01/01 09:36:17;;;;;;;;;;;;;;;9.81;100.00;101397.06;5084217;28;19923;-62
2023/01/01 09:38:47;;;;;;;;;;;;;;;9.83;100.00;101407.50;5091632;28;20029;-62
2023/01/01 09:41:21;;;;;;;;;;;;;;;9.85;100.00;101408.22;5083952;28;19916;-62
2023/01/01 09:43:55;;;;;;;;;;;;;;;9.86;100.00;101409.91;5083512;28;19916;-61
2023/01/01 09:46:22;;;;;;;;;;;;;;;9.87;100.00;101404.44;5073843;28;20007;-61
2023/01/01 09:48:54;;;;;;;;;;;;;;;9.89;100.00;101414.91;5075816;28;19917;-61
2023/01/01 09:51:20;;;;;;;;;;;;;;;9.90;100.00;101414.75;5086202;28;19928;-61
2023/01/01 09:54:03;;;;;;;;;;;;;;;9.90;100.00;101422.69;5085570;28;19931;-61
2023/01/01 09:56:29;;;;;;;;;;;;;;;9.93;100.00;101429.53;5084723;28;19912;-63
2023/01/01 09:58:57;;;;;;;;;;;;;;;9.97;100.00;101436.19;5084325;28;19928;-62
2023/01/01 10:01:31;;;;;;;;;;;;;;;10.00;100.00;101437.69;5077109;28;19999;-62
2023/01/01 10:04:19;;;;;;;;;;;;;;;10.05;100.00;101422.97;5082221;28;19935;-62
2023/01/01 10:06:54;;;;;;;;;;;;;;;10.10;100.00;101430.47;5075181;28;19920;-62
2023/01/01 10:09:45;;;;;;;;;;;;;;;10.10;100.00;101425.16;5089251;28;19920;-62
2023/01/01 10:12:13;;;;;;;;;;;;;;;10.10;100.00;101439.28;5072463;28;19923;-62
2023/01/01 10:14:42;;;;;;;;;;;;;;;10.10;100.00;101425.16;5082529;28;19921;-63
2023/01/01 10:17:16;;;;;;;;;;;;;;;10.09;100.00;101420.84;5079506;28;20006;-63
2023/01/01 10:19:46;;;;;;;;;;;;;;;10.07;100.00;101391.81;5084830;28;19955;-62
2023/01/01 10:22:15;;;;;;;;;;;;;;;10.12;100.00;101394.00;5076852;28;20277;-64
2023/01/01 10:24:50;;;;;;;;;;;;;;;10.16;100.00;101409.50;5090512;28;19969;-61
2023/01/01 10:27:39;;;;;;;;;;;;;;;10.15;100.00;101413.13;5084102;28;20372;-61
2023/01/01 10:30:13;;;;;;;;;;;;;;;10.13;100.00;101399.19;5073884;28;19920;-61
2023/01/01 10:32:39;;;;;;;;;;;;;;;10.16;100.00;101403.34;5085804;28;19920;-61
2023/01/01 10:35:15;;;;;;;;;;;;;;;10.17;100.00;101411.16;5076944;28;19916;-61
2023/01/01 10:37:41;;;;;;;;;;;;;;;10.19;100.00;101413.66;5078187;28;19920;-61
2023/01/01 10:40:17;;;;;;;;;;;;;;;10.23;100.00;101413.22;5089676;28;19962;-61
2023/01/01 10:42:45;;;;;;;;;;;;;;;10.31;100.00;101411.59;5082981;28;19962;-62
2023/01/01 10:45:13;;;;;;;;;;;;;;;10.42;100.00;101435.28;5083347;28;19920;-61
2023/01/01 10:47:38;;;;;;;;;;;;;;;10.51;100.00;101437.81;5083656;28;20569;-62
2023/01/01 10:50:06;;;;;;;;;;;;;;;10.61;100.00;101434.22;5082492;28;20050;-62
2023/01/01 10:52:35;;;;;;;;;;;;;;;10.68;100.00;101430.78;5086501;28;20015;-61
2023/01/01 10:55:01;;;;;;;;;;;;;;;10.70;100.00;101418.19;5082711;28;19920;-63
2023/01/01 10:57:26;;;;;;;;;;;;;;;10.74;100.00;101419.53;5077561;28;19924;-62
2023/01/01 10:59:51;;;;;;;;;;;;;;;10.81;100.00;101425.88;5087784;28;19963;-61
2023/01/01 11:02:19;;;;;;;;;;;;;;;10.94;100.00;101416.63;5093503;28;19931;-62
2023/01/01 11:04:44;;;;;;;;;;;;;;;11.04;100.00;101426.19;5086248;28;19916;-61
2023/01/01 11:07:16;;;;;;;;;;;;;;;11.13;100.00;101429.69;5080352;28;19951;-61
2023/01/01 11:09:46;;;;;;;;;;;;;;;11.21;100.00;101432.38;5087285;28;20363;-62
2023/01/01 11:12:17;;;;;;;;;;;;;;;11.26;100.00;101450.50;5079680;28;19925;-62
2023/01/01 11:14:47;;;;;;;;;;;;;;;11.31;100.00;101450.88;5081234;28;19916;-62
2023/01/01 11:17:19;;;;;;;;;;;;;;;11.35;100.00;101442.41;5074077;28;19922;-62
2023/01/01 11:19:47;;;;;;;;;;;;;;;11.41;99.02;101463.03;5092330;28;20379;-61
2023/01/01 11:22:32;;;;;;;;;;;;;;;11.48;98.36;101455.25;5084570;28;19916;-65
2023/01/01 11:24:58;;;;;;;;;;;;;;;11.54;97.66;101448.44;5083912;28;19912;-62
2023/01/01 11:27:24;;;;;;;;;;;;;;;11.59;97.50;101454.13;5077175;28;19920;-61
2023/01/01 11:29:51;;;;;;;;;;;;;;;11.60;96.92;101446.00;5077441;28;19924;-62
2023/01/01 11:32:22;;;;;;;;;;;;;;;11.65;96.32;101437.53;5085215;28;19955;-62
2023/01/01 11:34:53;;;;;;;;;;;;;;;11.71;96.10;101431.53;5086516;28;19955;-61
2023/01/01 11:37:18;;;;;;;;;;;;;;;11.75;95.52;101435.53;5074078;28;19927;-62
2023/01/01 11:39:44;;;;;;;;;;;;;;;11.79;95.32;101431.56;5072621;28;19920;-64
2023/01/01 11:42:15;;;;;;;;;;;;;;;11.84;94.24;101428.41;5077668;28;19922;-61
2023/01/01 11:44:45;;;;;;;;;;;;;;;11.86;93.54;101427.28;5083637;28;19966;-61
2023/01/01 11:47:20;;;;;;;;;;;;;;;11.92;92.64;101409.81;5086156;28;19916;-62
2023/01/01 11:49:46;;;;;;;;;;;;;;;11.98;91.60;101420.63;5078317;28;19928;-62
2023/01/01 11:52:29;;;;;;;;;;;;;;;12.05;90.88;101421.63;5078072;28;19924;-62
2023/01/01 11:55:00;;;;;;;;;;;;;;;12.10;90.20;101416.63;5078319;28;19916;-62
2023/01/01 11:57:26;;;;;;;;;;;;;;;12.17;88.72;101435.47;5082072;28;19920;-62
2023/01/01 11:59:56;;;;;;;;;;;;;;;12.24;88.67;101446.28;5076306;28;19922;-61
2023/01/01 12:02:30;;;;;;;;;;;;;;;12.24;87.94;101441.78;5076969;28;19920;-62
2023/01/01 12:05:02;;;;;;;;;;;;;;;12.28;87.33;101442.28;5086868;28;19916;-62
2023/01/01 12:07:29;;;;;;;;;;;;;;;12.29;87.17;101442.09;5087028;28;19920;-63
2023/01/01 12:10:01;;;;;;;;;;;;;;;12.30;86.70;101441.09;5087777;28;19944;-62
2023/01/01 12:12:29;;;;;;;;;;;;;;;12.33;85.93;101429.28;5080585;28;19916;-63
2023/01/01 12:15:05;;;;;;;;;;;;;;;12.37;85.16;101435.94;5081633;28;19995;-65
2023/01/01 12:17:34;;;;;;;;;;;;;;;12.41;85.02;101427.44;5081954;28;19920;-63
2023/01/01 12:20:02;;;;;;;;;;;;;;;12.45;84.43;101421.81;5075787;28;19932;-62
2023/01/01 12:22:27;;;;;;;;;;;;;;;12.45;84.29;101429.78;5086983;28;19940;-61
2023/01/01 12:24:53;;;;;;;;;;;;;;;12.46;83.84;101428.78;5080960;28;19988;-61
2023/01/01 12:27:33;;;;;;;;;;;;;;;12.57;83.27;101412.44;5080035;28;20291;-61
2023/01/01 12:30:04;;;;;;;;;;;;;;;12.73;83.02;101420.41;5078080;28;19916;-61
2023/01/01 12:32:45;;;;;;;;;;;;;;;12.91;82.79;101417.50;5083321;28;20314;-63
2023/01/01 12:35:13;;;;;;;;;;;;;;;13.03;81.73;101414.31;5088766;28;19949;-61
2023/01/01 12:37:47;;;;;;;;;;;;;;;13.19;81.29;101425.94;5093352;28;20002;-61
2023/01/01 12:40:33;;;;;;;;;;;;;;;13.29;80.44;101424.72;5078332;28;20353;-62
2023/01/01 12:43:02;;;;;;;;;;;;;;;13.27;80.20;101424.06;5072822;28;20007;-62
2023/01/01 12:45:36;;;;;;;;;;;;;;;13.21;80.04;101430.09;5078424;28;19916;-62